Time;durP1;ratioP1;P1;durP2;ratioP2;P2;SDS_P1;SDS_P2;PMS_P1;PMS_P2;Temp;Humidity;BMP_temperature;BMP_pressure;BME280_temperature;BME280_humidity;BME280_pressure;Samples;Min_cycle;Max_cycle;Signal;HPM_P1;HPM_P2
2022/02/23 00:00:11;;;;;;;12.90;1.48;;;10.40;93.00;;;;;;5049886;28;20048;-64
2022/02/23 00:02:37;;;;;;;1.50;0.57;;;10.40;93.10;;;;;;5049138;28;20029;-64
2022/02/23 00:05:03;;;;;;;4.38;1.13;;;10.40;92.90;;;;;;5046393;28;20156;-65
2022/02/23 00:07:28;;;;;;;1.20;0.68;;;10.40;93.00;;;;;;5048435;28;20025;-64
2022/02/23 00:09:54;;;;;;;4.28;0.75;;;10.40;93.00;;;;;;5049512;28;20362;-64
2022/02/23 00:12:20;;;;;;;1.60;0.77;;;10.40;93.00;;;;;;5050956;28;20378;-64
2022/02/23 00:14:45;;;;;;;9.20;1.30;;;10.40;92.90;;;;;;5051917;28;20393;-63
2022/02/23 00:17:11;;;;;;;2.20;0.90;;;10.40;93.00;;;;;;5044895;28;20033;-64
2022/02/23 00:19:36;;;;;;;2.05;0.55;;;10.40;93.00;;;;;;5049821;28;20032;-64
2022/02/23 00:22:02;;;;;;;1.55;0.65;;;10.40;93.00;;;;;;5016790;28;20201;-64
2022/02/23 00:24:28;;;;;;;1.88;0.95;;;10.40;93.10;;;;;;5033903;28;20057;-65
2022/02/23 00:26:54;;;;;;;2.50;0.88;;;10.40;93.10;;;;;;5049259;28;20542;-64
2022/02/23 00:29:19;;;;;;;1.60;0.93;;;10.40;93.00;;;;;;5049890;28;20492;-64
2022/02/23 00:31:46;;;;;;;8.88;1.10;;;10.40;93.10;;;;;;5039998;28;20124;-64
2022/02/23 00:34:11;;;;;;;2.92;1.00;;;10.40;93.10;;;;;;5046618;28;20033;-64
2022/02/23 00:36:37;;;;;;;0.85;0.65;;;10.40;93.10;;;;;;5048221;28;20178;-64
2022/02/23 00:39:03;;;;;;;0.63;0.52;;;10.40;93.10;;;;;;5049083;28;20041;-64
2022/02/23 00:41:29;;;;;;;5.03;1.00;;;10.40;93.10;;;;;;5048850;28;20036;-65
2022/02/23 00:43:55;;;;;;;1.90;0.90;;;10.40;93.20;;;;;;5031466;28;20398;-64
2022/02/23 00:46:21;;;;;;;3.17;1.20;;;10.40;93.20;;;;;;5048354;28;20032;-64
2022/02/23 00:48:47;;;;;;;3.28;1.17;;;10.30;93.10;;;;;;5030845;28;20033;-63
2022/02/23 00:51:12;;;;;;;15.48;1.25;;;10.40;93.20;;;;;;5030266;28;20033;-65
2022/02/23 00:53:38;;;;;;;7.63;1.08;;;10.40;93.10;;;;;;5047922;28;20033;-64
2022/02/23 00:56:04;;;;;;;4.57;1.00;;;10.40;93.30;;;;;;5048630;28;20449;-64
2022/02/23 00:58:30;;;;;;;7.57;0.93;;;10.40;93.10;;;;;;5030900;28;20409;-65
2022/02/23 01:00:55;;;;;;;1.58;0.70;;;10.40;93.20;;;;;;5048513;28;20013;-65
2022/02/23 01:03:21;;;;;;;1.75;0.75;;;10.40;93.30;;;;;;5047923;28;20471;-65
2022/02/23 01:05:47;;;;;;;1.48;0.90;;;10.40;93.30;;;;;;5046262;28;20059;-65
2022/02/23 01:08:13;;;;;;;1.92;0.88;;;10.40;93.20;;;;;;5028797;28;20466;-64
2022/02/23 01:10:38;;;;;;;6.30;1.40;;;10.40;93.40;;;;;;5011473;28;20026;-64
2022/02/23 01:13:04;;;;;;;1.55;0.77;;;10.40;93.40;;;;;;5028551;28;20643;-64
2022/02/23 01:15:30;;;;;;;2.40;1.10;;;10.40;93.30;;;;;;5039138;28;20052;-65
2022/02/23 01:17:55;;;;;;;1.13;0.63;;;10.40;93.30;;;;;;5048645;28;20025;-64
2022/02/23 01:20:23;;;;;;;1.40;0.80;;;10.30;93.30;;;;;;5030716;28;20600;-65
2022/02/23 01:22:50;;;;;;;1.45;0.65;;;10.30;93.20;;;;;;5050545;28;20065;-64
2022/02/23 01:25:15;;;;;;;1.50;0.52;;;10.40;93.30;;;;;;5052460;28;20496;-63
2022/02/23 01:27:41;;;;;;;0.85;0.55;;;10.40;93.30;;;;;;5052524;28;20025;-63
2022/02/23 01:30:08;;;;;;;5.00;1.00;;;10.40;93.30;;;;;;5056247;28;20048;-63
2022/02/23 01:32:33;;;;;;;1.15;0.50;;;10.40;93.30;;;;;;5037587;28;20025;-63
2022/02/23 01:34:59;;;;;;;1.27;0.80;;;10.40;93.30;;;;;;5055357;28;20466;-63
2022/02/23 01:40:51;;;;;;;3.05;0.70;;;10.40;93.20;;;;;;5076969;28;20042;-63
2022/02/23 01:43:17;;;;;;;3.67;1.08;;;10.40;93.30;;;;;;5075671;28;20029;-63
2022/02/23 01:45:42;;;;;;;0.30;0.30;;;10.40;93.30;;;;;;5057589;28;20021;-63
2022/02/23 01:48:08;;;;;;;1.67;0.80;;;10.40;93.40;;;;;;5075305;28;20435;-63
2022/02/23 01:50:34;;;;;;;5.55;0.77;;;10.40;93.40;;;;;;5075213;28;20032;-63
2022/02/23 01:52:59;;;;;;;2.15;0.70;;;10.40;93.40;;;;;;5054133;28;20040;-63
2022/02/23 01:55:25;;;;;;;0.82;0.52;;;10.40;93.40;;;;;;5074243;28;20036;-63
2022/02/23 01:57:51;;;;;;;3.47;0.60;;;10.40;93.50;;;;;;5063809;28;20739;-63
2022/02/23 02:00:17;;;;;;;1.65;0.55;;;10.40;93.80;;;;;;5052104;28;20029;-63
2022/02/23 02:02:45;;;;;;;0.60;0.57;;;10.40;93.50;;;;;;5051236;28;20033;-63
2022/02/23 02:05:11;;;;;;;0.60;0.60;;;10.40;93.50;;;;;;5051731;28;20100;-63
2022/02/23 02:07:37;;;;;;;2.38;0.63;;;10.40;93.50;;;;;;5053537;28;20492;-63
2022/02/23 02:10:04;;;;;;;1.65;0.63;;;10.40;93.50;;;;;;5052008;28;20025;-63
2022/02/23 02:12:29;;;;;;;1.02;0.63;;;10.40;93.50;;;;;;5049770;28;20029;-63
2022/02/23 02:14:56;;;;;;;0.63;0.63;;;10.40;93.50;;;;;;5051733;28;20029;-62
2022/02/23 02:17:22;;;;;;;1.05;0.82;;;10.40;93.70;;;;;;5051680;28;20112;-64
2022/02/23 02:19:48;;;;;;;0.85;0.60;;;10.40;93.70;;;;;;5050444;28;20109;-63
2022/02/23 02:22:13;;;;;;;1.38;0.65;;;10.40;93.60;;;;;;5057186;28;20364;-62
2022/02/23 02:24:41;;;;;;;0.32;0.32;;;10.40;93.60;;;;;;5071096;28;20059;-63
2022/02/23 02:27:13;;;;;;;6.20;0.80;;;10.40;93.60;;;;;;5071293;28;20031;-63
2022/02/23 02:29:41;;;;;;;0.60;0.60;;;10.40;93.60;;;;;;5063371;28;20127;-63
2022/02/23 02:32:08;;;;;;;1.65;0.50;;;10.40;93.70;;;;;;5049224;28;20024;-63
2022/02/23 02:34:35;;;;;;;0.47;0.47;;;10.40;93.60;;;;;;5048157;28;20028;-63
2022/02/23 02:37:01;;;;;;;1.70;1.00;;;10.40;93.70;;;;;;5050220;28;20135;-63
2022/02/23 02:39:27;;;;;;;2.88;0.70;;;10.40;94.00;;;;;;5050923;28;20028;-64
2022/02/23 02:41:53;;;;;;;0.55;0.55;;;10.40;93.70;;;;;;5033138;28;20028;-63
2022/02/23 02:44:18;;;;;;;0.47;0.47;;;10.40;93.80;;;;;;5033023;28;20025;-63
2022/02/23 02:46:45;;;;;;;1.38;1.27;;;10.40;93.70;;;;;;5050341;28;20094;-63
2022/02/23 02:49:12;;;;;;;0.95;0.40;;;10.40;93.80;;;;;;5032144;28;20032;-63
2022/02/23 02:51:37;;;;;;;3.20;1.00;;;10.40;93.80;;;;;;5033443;28;20036;-63
2022/02/23 02:54:05;;;;;;;0.95;0.70;;;10.40;93.90;;;;;;5052632;28;20028;-62
2022/02/23 02:56:32;;;;;;;2.75;0.65;;;10.40;93.90;;;;;;5070940;28;20032;-62
2022/02/23 02:58:57;;;;;;;0.50;0.50;;;10.40;93.90;;;;;;5053947;28;20029;-63
2022/02/23 03:01:25;;;;;;;1.98;0.80;;;10.40;93.90;;;;;;5050156;28;20041;-63
2022/02/23 03:03:52;;;;;;;0.20;0.20;;;10.40;93.90;;;;;;5050729;28;20409;-63
2022/02/23 03:06:18;;;;;;;0.32;0.30;;;10.40;93.90;;;;;;5032706;28;20114;-62
2022/02/23 03:08:45;;;;;;;0.30;0.30;;;10.40;93.90;;;;;;5033524;28;20083;-62
2022/02/23 03:11:11;;;;;;;1.00;0.30;;;10.50;93.90;;;;;;5050394;28;20025;-62
2022/02/23 03:13:37;;;;;;;0.57;0.38;;;10.40;93.90;;;;;;5032033;28;20031;-62
2022/02/23 03:16:04;;;;;;;0.30;0.30;;;10.40;93.80;;;;;;5050174;28;20029;-63
2022/02/23 03:18:30;;;;;;;1.35;0.57;;;10.40;93.90;;;;;;5049023;28;20033;-63
2022/02/23 03:20:56;;;;;;;3.15;0.30;;;10.40;93.90;;;;;;5032696;28;20044;-62
2022/02/23 03:23:21;;;;;;;0.20;0.20;;;10.40;93.90;;;;;;5061869;28;20024;-63
2022/02/23 03:25:47;;;;;;;0.30;0.30;;;10.40;93.90;;;;;;5069985;28;20531;-62
2022/02/23 03:28:12;;;;;;;5.10;0.63;;;10.40;93.80;;;;;;5069905;28;20024;-62
2022/02/23 03:30:38;;;;;;;4.95;0.43;;;10.40;93.80;;;;;;5055514;28;20040;-62
2022/02/23 03:33:07;;;;;;;0.43;0.32;;;10.40;93.80;;;;;;5048891;28;20039;-62
2022/02/23 03:35:32;;;;;;;3.40;0.57;;;10.40;93.90;;;;;;5048309;28;20081;-62
2022/02/23 03:37:58;;;;;;;0.80;0.35;;;10.40;93.90;;;;;;5050246;28;20444;-62
2022/02/23 03:40:25;;;;;;;0.52;0.30;;;10.40;93.90;;;;;;5069541;28;20108;-63
2022/02/23 03:42:52;;;;;;;3.20;0.30;;;10.40;93.80;;;;;;5055404;28;20113;-62
2022/02/23 03:45:17;;;;;;;2.22;0.55;;;10.40;93.90;;;;;;5049197;28;20024;-62
2022/02/23 03:47:43;;;;;;;0.40;0.40;;;10.40;93.80;;;;;;5036467;28;20033;-62
2022/02/23 03:50:09;;;;;;;0.32;0.32;;;10.40;93.80;;;;;;5022628;28;20031;-63
2022/02/23 03:52:35;;;;;;;0.98;0.47;;;10.40;93.80;;;;;;5022672;28;20033;-62
2022/02/23 03:55:01;;;;;;;0.93;0.57;;;10.40;93.80;;;;;;5046340;28;20029;-62
2022/02/23 03:57:26;;;;;;;0.40;0.40;;;10.40;93.80;;;;;;5049314;28;20553;-63
2022/02/23 03:59:52;;;;;;;0.28;0.28;;;10.40;93.80;;;;;;5048170;28;20477;-62
2022/02/23 04:02:17;;;;;;;0.35;0.35;;;10.40;93.90;;;;;;5031251;28;20115;-62
2022/02/23 04:04:43;;;;;;;0.82;0.47;;;10.40;93.90;;;;;;5049097;28;20109;-62
2022/02/23 04:07:09;;;;;;;0.30;0.30;;;10.40;93.80;;;;;;5031704;28;20035;-64
2022/02/23 04:09:35;;;;;;;2.33;0.50;;;10.40;93.80;;;;;;5044916;28;20021;-62
2022/02/23 04:12:00;;;;;;;5.63;0.57;;;10.40;93.70;;;;;;5048833;28;20084;-62
2022/02/23 04:14:26;;;;;;;0.98;0.70;;;10.40;93.80;;;;;;5049108;28;20454;-63
2022/02/23 04:16:52;;;;;;;2.15;0.93;;;10.40;93.80;;;;;;5048817;28;20037;-62
2022/02/23 04:19:18;;;;;;;0.70;0.60;;;10.40;93.80;;;;;;5046681;28;20029;-63
2022/02/23 04:21:43;;;;;;;0.47;0.47;;;10.40;93.70;;;;;;5047574;28;20031;-63
2022/02/23 04:24:09;;;;;;;0.57;0.43;;;10.40;93.70;;;;;;5063899;28;20025;-62
2022/02/23 04:26:35;;;;;;;4.55;0.80;;;10.40;93.70;;;;;;5068768;28;20115;-62
2022/02/23 04:29:05;;;;;;;0.40;0.40;;;10.40;93.70;;;;;;5069391;28;20024;-63
2022/02/23 04:31:32;;;;;;;6.55;0.77;;;10.40;93.70;;;;;;5052354;28;20037;-62
2022/02/23 04:33:58;;;;;;;1.10;0.60;;;10.40;93.70;;;;;;5033202;28;20029;-62
2022/02/23 04:36:24;;;;;;;1.17;0.60;;;10.40;93.80;;;;;;5050960;28;20586;-63
2022/02/23 04:39:39;;;;;;;1.85;1.05;;;10.40;93.80;;;;;;5061929;28;20028;-62
2022/02/23 04:42:08;;;;;;;1.90;0.80;;;10.40;93.70;;;;;;5060442;28;20028;-63
2022/02/23 04:44:35;;;;;;;4.23;0.93;;;10.30;93.80;;;;;;5049131;28;20033;-62
2022/02/23 04:47:01;;;;;;;2.88;0.73;;;10.30;93.80;;;;;;5048937;28;20071;-63
2022/02/23 04:49:26;;;;;;;0.88;0.60;;;10.40;93.80;;;;;;5046897;28;20057;-62
2022/02/23 04:51:52;;;;;;;2.10;0.60;;;10.40;93.80;;;;;;5048066;28;20025;-64
2022/02/23 04:54:17;;;;;;;1.55;0.57;;;10.30;93.80;;;;;;5043772;28;20411;-65
2022/02/23 04:56:43;;;;;;;1.25;0.57;;;10.30;93.70;;;;;;5068956;28;20399;-65
2022/02/23 04:59:09;;;;;;;3.72;0.90;;;10.40;93.70;;;;;;5062912;28;20124;-65
2022/02/23 05:01:35;;;;;;;1.17;0.80;;;10.40;93.70;;;;;;5034365;28;20066;-65
2022/02/23 05:04:00;;;;;;;5.85;1.00;;;10.40;93.70;;;;;;5052659;28;20032;-65
2022/02/23 05:06:26;;;;;;;4.53;0.70;;;10.40;93.70;;;;;;5052523;28;20025;-66
2022/02/23 05:08:52;;;;;;;2.25;0.80;;;10.30;93.70;;;;;;5040345;28;20032;-65
2022/02/23 05:11:17;;;;;;;1.80;0.70;;;10.30;93.70;;;;;;5050623;28;20504;-66
2022/02/23 05:13:43;;;;;;;3.83;0.77;;;10.30;93.80;;;;;;5052200;28;20074;-62
2022/02/23 05:16:09;;;;;;;1.50;0.60;;;10.30;93.70;;;;;;5053081;28;20389;-62
2022/02/23 05:18:34;;;;;;;2.90;0.85;;;10.30;93.80;;;;;;5052428;28;20147;-63
2022/02/23 05:21:01;;;;;;;1.23;0.60;;;10.40;93.70;;;;;;5052294;28;20033;-62
2022/02/23 05:23:27;;;;;;;1.23;0.63;;;10.40;93.70;;;;;;5052110;28;20039;-62
2022/02/23 05:25:54;;;;;;;3.55;0.88;;;10.30;93.70;;;;;;5054942;28;20020;-62
2022/02/23 05:28:20;;;;;;;3.00;1.00;;;10.30;93.60;;;;;;5043483;28;20025;-62
2022/02/23 05:30:46;;;;;;;2.20;0.80;;;10.40;93.60;;;;;;5048028;28;20036;-62
2022/02/23 05:33:12;;;;;;;2.55;0.57;;;10.40;93.70;;;;;;5052164;28;20131;-62
2022/02/23 05:35:39;;;;;;;5.35;0.65;;;10.30;93.70;;;;;;5034324;28;20032;-63
2022/02/23 05:38:05;;;;;;;2.72;0.65;;;10.30;93.70;;;;;;5035080;28;20041;-62
2022/02/23 05:40:32;;;;;;;1.52;0.80;;;10.30;93.80;;;;;;5074087;28;20024;-62
2022/02/23 05:42:57;;;;;;;1.38;0.88;;;10.30;93.90;;;;;;5056007;28;20090;-62
2022/02/23 05:45:23;;;;;;;2.63;0.85;;;10.30;93.90;;;;;;5052269;28;20100;-63
2022/02/23 05:47:49;;;;;;;6.93;0.77;;;10.30;93.80;;;;;;5035281;28;20163;-62
2022/02/23 05:50:15;;;;;;;3.90;1.20;;;10.30;93.80;;;;;;5031834;28;20115;-63
2022/02/23 05:52:41;;;;;;;2.95;0.93;;;10.30;93.90;;;;;;5031698;28;20029;-62
2022/02/23 05:55:08;;;;;;;1.40;0.57;;;10.30;93.80;;;;;;5047921;28;20041;-62
2022/02/23 05:57:34;;;;;;;0.80;0.80;;;10.30;93.90;;;;;;5052069;28;20087;-62
2022/02/23 06:00:01;;;;;;;3.50;1.27;;;10.30;93.90;;;;;;5051357;28;20021;-62
2022/02/23 06:02:27;;;;;;;6.32;1.02;;;10.30;93.80;;;;;;5051653;28;20032;-62
2022/02/23 06:04:52;;;;;;;3.53;0.80;;;10.30;93.90;;;;;;5051971;28;20473;-62
2022/02/23 06:07:18;;;;;;;1.60;0.98;;;10.30;93.90;;;;;;5051879;28;20031;-63
2022/02/23 06:09:44;;;;;;;1.23;0.70;;;10.30;93.90;;;;;;5076763;22;20055;-63
2022/02/23 06:12:10;;;;;;;4.25;0.65;;;10.30;93.90;;;;;;5026411;28;20034;-63
2022/02/23 06:14:36;;;;;;;3.22;0.90;;;10.30;93.80;;;;;;5022675;28;20045;-64
2022/02/23 06:17:01;;;;;;;3.13;0.85;;;10.30;93.90;;;;;;5023671;28;20097;-64
2022/02/23 06:19:27;;;;;;;4.10;0.80;;;10.30;93.90;;;;;;5028665;28;20032;-59
2022/02/23 06:21:54;;;;;;;2.08;1.05;;;9.90;91.50;;;;;;5030799;28;20486;-60
2022/02/23 06:24:21;;;;;;;5.65;1.52;;;9.50;92.10;;;;;;5024886;28;20029;-60
2022/02/23 06:26:46;;;;;;;1.23;0.70;;;9.60;92.70;;;;;;5028489;28;20025;-60
2022/02/23 06:29:12;;;;;;;2.28;1.05;;;9.70;92.70;;;;;;5026322;28;20040;-61
2022/02/23 06:31:38;;;;;;;1.67;1.00;;;9.80;92.80;;;;;;5019851;28;20061;-61
2022/02/23 06:34:03;;;;;;;3.92;1.15;;;9.80;92.80;;;;;;5029013;28;20025;-60
2022/02/23 06:36:29;;;;;;;2.28;0.93;;;9.80;92.70;;;;;;5047604;28;20433;-60
2022/02/23 06:38:55;;;;;;;5.35;1.60;;;9.80;92.70;;;;;;5049633;28;20045;-60
2022/02/23 06:41:24;;;;;;;2.05;1.00;;;9.80;92.70;;;;;;5051443;28;20028;-60
2022/02/23 06:43:51;;;;;;;2.92;0.95;;;9.80;92.70;;;;;;5049220;28;20025;-61
2022/02/23 06:46:17;;;;;;;1.00;0.63;;;9.80;92.50;;;;;;5049363;28;20048;-60
2022/02/23 06:48:43;;;;;;;3.08;1.20;;;9.80;92.70;;;;;;5032897;28;20021;-59
2022/02/23 06:51:09;;;;;;;2.60;1.00;;;9.80;92.40;;;;;;5050242;28;20447;-59
2022/02/23 06:53:36;;;;;;;2.63;0.73;;;9.80;92.30;;;;;;5036311;28;20112;-60
2022/02/23 06:56:02;;;;;;;2.33;1.08;;;9.80;92.30;;;;;;5051459;28;20055;-61
2022/02/23 06:58:30;;;;;;;2.15;0.70;;;9.80;92.30;;;;;;5032839;28;20333;-61
2022/02/23 07:00:57;;;;;;;0.88;0.77;;;9.80;92.30;;;;;;5049511;28;20397;-60
2022/02/23 07:03:23;;;;;;;1.92;0.70;;;9.80;92.10;;;;;;5038835;28;20025;-61
2022/02/23 07:05:48;;;;;;;2.30;0.90;;;9.80;92.10;;;;;;5046003;28;20036;-61
2022/02/23 07:08:14;;;;;;;2.58;0.60;;;9.80;92.10;;;;;;5050282;28;20025;-60
2022/02/23 07:10:40;;;;;;;4.18;0.98;;;9.80;91.90;;;;;;5033444;28;20044;-60
2022/02/23 07:13:07;;;;;;;1.67;0.77;;;9.80;92.10;;;;;;5048125;28;20401;-60
2022/02/23 07:15:34;;;;;;;5.22;1.20;;;9.90;92.00;;;;;;5049896;28;20032;-60
2022/02/23 07:18:00;;;;;;;1.73;1.00;;;9.80;92.00;;;;;;5050326;28;20037;-60
2022/02/23 07:20:26;;;;;;;1.25;0.60;;;9.90;91.90;;;;;;5048812;28;20016;-60
2022/02/23 07:22:52;;;;;;;1.83;0.95;;;9.80;91.90;;;;;;5034579;28;20029;-61
2022/02/23 07:25:18;;;;;;;5.50;1.33;;;9.90;92.00;;;;;;5050046;28;20028;-61
2022/02/23 07:27:45;;;;;;;1.00;0.70;;;9.90;92.00;;;;;;5039058;28;20048;-60
2022/02/23 07:30:13;;;;;;;2.33;1.15;;;9.80;92.00;;;;;;5049598;28;20028;-60
2022/02/23 07:32:39;;;;;;;2.88;0.80;;;9.90;92.20;;;;;;5048745;28;20055;-60
2022/02/23 07:35:06;;;;;;;0.60;0.60;;;9.90;91.90;;;;;;5049497;28;20477;-60
2022/02/23 07:37:37;;;;;;;5.22;1.45;;;9.90;92.00;;;;;;5049353;28;20603;-60
2022/02/23 07:40:11;;;;;;;1.50;0.98;;;10.00;92.10;;;;;;5049420;28;20029;-62
2022/02/23 07:42:46;;;;;;;4.18;0.80;;;10.00;92.10;;;;;;5050676;28;20035;-61
2022/02/23 07:45:12;;;;;;;2.75;0.73;;;10.00;92.00;;;;;;5049422;28;20070;-60
2022/02/23 07:47:38;;;;;;;2.67;1.27;;;10.10;92.00;;;;;;5049017;28;20029;-60
2022/02/23 07:50:09;;;;;;;3.63;0.85;;;10.10;91.90;;;;;;5035291;28;20028;-60
2022/02/23 07:52:36;;;;;;;6.20;1.30;;;10.20;91.80;;;;;;5044390;28;20116;-61
2022/02/23 07:55:02;;;;;;;3.55;1.13;;;10.20;91.80;;;;;;5048452;28;20501;-60
2022/02/23 07:57:27;;;;;;;7.55;1.00;;;10.20;91.90;;;;;;5035568;28;20031;-60
2022/02/23 07:59:55;;;;;;;2.33;0.88;;;10.20;92.00;;;;;;5049797;28;20068;-60
2022/02/23 08:02:21;;;;;;;2.38;1.05;;;10.20;91.90;;;;;;5036877;28;20056;-60
2022/02/23 08:04:52;;;;;;;0.80;0.80;;;10.20;92.20;;;;;;5044241;28;20036;-60
2022/02/23 08:07:21;;;;;;;6.82;1.52;;;10.20;91.90;;;;;;5046715;28;20063;-60
2022/02/23 08:09:47;;;;;;;4.30;1.00;;;10.20;92.30;;;;;;5028475;28;20045;-59
2022/02/23 08:12:13;;;;;;;5.88;1.50;;;10.20;92.10;;;;;;5045881;28;20026;-60
2022/02/23 08:14:39;;;;;;;4.20;1.05;;;10.30;92.10;;;;;;5046264;28;20055;-61
2022/02/23 08:19:51;;;;;;;3.10;1.23;;;10.30;92.20;;;;;;5037534;28;20051;-59
2022/02/23 08:22:18;;;;;;;1.58;1.25;;;10.30;92.00;;;;;;5048180;28;20025;-60
2022/02/23 08:24:48;;;;;;;1.83;1.08;;;10.30;92.30;;;;;;5042469;28;20025;-60
2022/02/23 08:27:20;;;;;;;2.33;1.20;;;10.30;92.60;;;;;;5046090;28;20052;-60
2022/02/23 08:29:47;;;;;;;1.88;1.55;;;10.30;92.40;;;;;;5034451;28;20061;-59
2022/02/23 08:32:14;;;;;;;2.67;0.93;;;10.40;92.10;;;;;;5037259;28;20394;-61
2022/02/23 08:34:44;;;;;;;6.75;1.08;;;10.40;92.90;;;;;;5019074;28;20028;-60
2022/02/23 08:37:10;;;;;;;3.60;1.60;;;10.40;93.10;;;;;;5039358;28;20033;-61
2022/02/23 08:39:37;;;;;;;1.10;0.95;;;10.40;92.30;;;;;;5040073;28;20056;-60
2022/02/23 08:42:04;;;;;;;1.83;0.93;;;10.40;92.80;;;;;;5041447;28;20029;-60
2022/02/23 08:44:30;;;;;;;2.13;0.80;;;10.40;92.50;;;;;;5041343;28;20525;-60
2022/02/23 08:46:56;;;;;;;9.15;1.15;;;10.40;92.30;;;;;;5015228;28;20178;-60
2022/02/23 08:49:22;;;;;;;4.45;0.90;;;10.40;92.30;;;;;;5031214;28;20632;-62
2022/02/23 08:51:48;;;;;;;7.68;1.27;;;10.40;92.70;;;;;;5044510;28;20333;-60
2022/02/23 08:54:16;;;;;;;5.18;1.25;;;10.40;92.50;;;;;;5041114;28;20036;-60
2022/02/23 08:56:42;;;;;;;8.35;0.82;;;10.30;92.10;;;;;;5036451;28;20421;-60
2022/02/23 08:59:08;;;;;;;5.70;1.10;;;10.30;92.70;;;;;;5045452;28;20029;-60
2022/02/23 09:01:34;;;;;;;9.25;1.20;;;10.30;92.00;;;;;;5039687;28;20466;-61
2022/02/23 09:04:02;;;;;;;0.73;0.70;;;10.30;92.10;;;;;;5038837;28;20378;-60
2022/02/23 09:06:28;;;;;;;3.40;0.40;;;10.40;92.10;;;;;;5039458;28;20120;-60
2022/02/23 09:08:54;;;;;;;1.52;0.43;;;10.40;92.00;;;;;;5039475;28;20029;-60
2022/02/23 09:11:19;;;;;;;2.35;1.17;;;10.50;92.00;;;;;;5039567;28;20124;-61
2022/02/23 09:13:45;;;;;;;0.85;0.63;;;10.50;92.10;;;;;;5045345;28;20120;-62
2022/02/23 09:16:11;;;;;;;5.82;0.98;;;10.50;91.80;;;;;;5047943;28;20473;-60
2022/02/23 09:18:36;;;;;;;2.65;0.47;;;10.60;92.10;;;;;;5042829;28;20409;-61
2022/02/23 09:21:02;;;;;;;0.45;0.45;;;10.70;92.00;;;;;;5042444;28;20021;-61
2022/02/23 09:23:31;;;;;;;9.02;1.50;;;10.70;91.80;;;;;;5031887;28;20528;-60
2022/02/23 09:25:57;;;;;;;5.35;1.55;;;10.70;91.80;;;;;;5048033;28;20025;-61
2022/02/23 09:28:26;;;;;;;11.45;1.38;;;10.80;92.00;;;;;;5061148;28;20436;-61
2022/02/23 09:30:51;;;;;;;0.80;0.80;;;10.80;91.90;;;;;;5041005;28;20076;-61
2022/02/23 09:33:17;;;;;;;11.32;1.60;;;10.80;91.90;;;;;;5042233;28;20025;-60
2022/02/23 09:35:49;;;;;;;2.03;1.15;;;10.80;91.80;;;;;;5044164;28;20029;-61
2022/02/23 09:38:15;;;;;;;8.60;1.30;;;10.80;92.40;;;;;;5041267;28;20037;-61
2022/02/23 09:40:46;;;;;;;4.00;1.35;;;10.80;92.20;;;;;;5042470;28;20025;-61
2022/02/23 09:43:12;;;;;;;4.80;1.23;;;10.80;92.20;;;;;;5063456;28;20024;-61
2022/02/23 09:45:42;;;;;;;6.93;1.40;;;10.80;92.10;;;;;;5031847;28;20128;-60
2022/02/23 09:48:09;;;;;;;4.38;1.45;;;10.90;92.30;;;;;;5040560;28;20517;-61
2022/02/23 09:50:35;;;;;;;6.60;1.77;;;11.00;92.70;;;;;;5040683;28;20466;-61
2022/02/23 09:53:01;;;;;;;3.97;1.48;;;10.90;92.80;;;;;;5043905;28;20108;-61
2022/02/23 09:55:29;;;;;;;8.25;1.23;;;11.00;92.90;;;;;;5041654;28;20041;-61
2022/02/23 09:57:55;;;;;;;10.23;1.67;;;10.90;92.60;;;;;;5047001;28;20040;-61
2022/02/23 10:00:21;;;;;;;5.07;1.42;;;11.00;92.50;;;;;;5049263;28;20029;-61
2022/02/23 10:02:47;;;;;;;7.90;1.20;;;11.00;92.20;;;;;;5033285;28;20028;-61
2022/02/23 10:05:16;;;;;;;4.63;1.20;;;11.10;92.50;;;;;;5031162;28;20338;-61
2022/02/23 10:07:41;;;;;;;8.63;1.60;;;11.20;92.30;;;;;;5041730;28;20086;-60
2022/02/23 10:10:09;;;;;;;3.60;1.45;;;11.20;92.60;;;;;;5052332;28;20037;-62
2022/02/23 10:12:36;;;;;;;5.38;1.25;;;11.30;92.00;;;;;;5045363;28;20028;-61
2022/02/23 10:15:12;;;;;;;1.90;1.17;;;11.30;91.50;;;;;;5043097;28;20072;-61
2022/02/23 10:17:47;;;;;;;2.83;0.90;;;11.40;91.30;;;;;;5034245;28;20024;-61
2022/02/23 10:20:34;;;;;;;6.25;1.10;;;11.40;91.00;;;;;;5032377;28;20029;-62
2022/02/23 10:23:07;;;;;;;5.60;1.58;;;11.50;91.20;;;;;;5045519;28;20090;-61
2022/02/23 10:25:42;;;;;;;15.10;1.73;;;11.50;91.40;;;;;;5045232;28;20036;-61
2022/02/23 10:28:15;;;;;;;6.82;1.52;;;11.60;90.80;;;;;;5045316;28;20029;-61
2022/02/23 10:30:54;;;;;;;3.70;1.38;;;11.50;90.90;;;;;;5041283;28;20033;-61
2022/02/23 10:33:22;;;;;;;1.15;1.00;;;11.40;90.50;;;;;;5039105;28;20493;-62
2022/02/23 10:35:53;;;;;;;14.50;1.80;;;11.30;91.40;;;;;;5036550;28;20545;-61
2022/02/23 10:38:22;;;;;;;5.82;1.02;;;11.30;91.50;;;;;;5043807;28;20490;-61
2022/02/23 10:40:48;;;;;;;7.47;1.50;;;11.30;91.80;;;;;;5039777;28;20041;-61
2022/02/23 10:43:24;;;;;;;1.83;1.05;;;11.30;91.80;;;;;;5049738;28;20313;-61
2022/02/23 10:46:02;;;;;;;9.05;1.60;;;11.20;91.60;;;;;;5043174;28;20033;-61
2022/02/23 10:48:40;;;;;;;5.72;1.27;;;11.10;91.20;;;;;;5038052;28;20557;-61
2022/02/23 10:51:09;;;;;;;4.18;1.40;;;11.20;91.50;;;;;;5045403;28;20033;-61
2022/02/23 10:53:38;;;;;;;1.20;0.77;;;11.40;91.60;;;;;;5040722;28;20041;-61
2022/02/23 10:56:27;;;;;;;6.45;1.42;;;11.60;89.70;;;;;;5042510;28;20116;-62
2022/02/23 10:59:15;;;;;;;3.92;1.42;;;11.80;90.10;;;;;;5036480;28;20078;-62
2022/02/23 11:01:43;;;;;;;0.52;0.52;;;11.80;88.90;;;;;;5032662;28;20453;-61
2022/02/23 11:04:11;;;;;;;5.32;1.17;;;11.90;88.90;;;;;;5044685;28;20017;-62
2022/02/23 11:06:39;;;;;;;0.57;0.57;;;11.90;91.00;;;;;;5050932;28;20064;-61
2022/02/23 11:09:09;;;;;;;8.60;1.02;;;11.90;88.60;;;;;;5040591;28;20025;-62
2022/02/23 11:11:34;;;;;;;5.63;1.60;;;11.90;88.30;;;;;;5036899;28;20037;-62
2022/02/23 11:14:01;;;;;;;2.13;1.50;;;12.00;90.60;;;;;;5049881;28;20087;-62
2022/02/23 11:16:28;;;;;;;2.10;1.27;;;12.10;90.50;;;;;;5042439;28;20362;-62
2022/02/23 11:18:57;;;;;;;5.43;0.60;;;12.10;90.70;;;;;;5038860;28;20029;-62
2022/02/23 11:21:26;;;;;;;1.75;0.65;;;12.20;90.10;;;;;;5047696;28;20128;-62
2022/02/23 11:23:57;;;;;;;7.05;1.17;;;12.20;90.90;;;;;;5043119;28;20024;-61
2022/02/23 11:26:24;;;;;;;5.93;2.03;;;12.30;90.80;;;;;;5036957;28;20091;-62
2022/02/23 11:29:06;;;;;;;1.35;1.00;;;12.50;90.80;;;;;;5049163;28;20040;-62
2022/02/23 11:31:36;;;;;;;1.85;0.55;;;12.50;89.00;;;;;;5043131;28;20035;-62
2022/02/23 11:34:07;;;;;;;1.35;0.60;;;12.60;89.70;;;;;;5033134;28;20604;-62
2022/02/23 11:36:38;;;;;;;;;;;12.60;88.90;;;;;;5052545;28;20116;-60
2022/02/23 11:39:27;;;;;;;1.63;1.08;;;12.60;90.60;;;;;;5039628;28;19908;-60
2022/02/23 11:41:55;;;;;;;3.70;1.33;;;12.60;89.80;;;;;;5040654;28;20029;-61
2022/02/23 11:44:21;;;;;;;3.08;1.50;;;12.60;90.70;;;;;;5050699;28;20482;-60
2022/02/23 11:49:47;;;;;;;2.03;0.60;;;12.70;89.30;;;;;;5043029;28;20187;-61
2022/02/23 11:52:51;;;;;;;5.28;1.20;;;12.70;89.50;;;;;;5042119;28;20029;-61
2022/02/23 11:58:46;;;;;;;10.55;0.98;;;12.50;90.40;;;;;;5050187;28;20040;-60
2022/02/23 12:01:12;;;;;;;1.98;0.95;;;12.30;89.60;;;;;;5048408;28;20033;-61
2022/02/23 12:03:37;;;;;;;0.80;0.80;;;12.40;90.50;;;;;;5037750;28;20022;-60
2022/02/23 12:06:09;;;;;;;7.32;1.23;;;12.50;88.90;;;;;;5040608;28;20026;-61
2022/02/23 12:08:44;;;;;;;15.93;0.95;;;12.60;90.60;;;;;;5042064;28;20045;-60
2022/02/23 12:11:13;;;;;;;3.90;2.30;;;12.70;89.60;;;;;;5047030;28;20037;-60
2022/02/23 12:13:44;;;;;;;2.65;0.93;;;12.80;89.10;;;;;;5037605;28;20025;-60
2022/02/23 12:16:26;;;;;;;2.38;1.25;;;12.80;89.50;;;;;;5049970;28;20032;-61
2022/02/23 12:19:00;;;;;;;0.85;0.85;;;12.80;90.30;;;;;;5034073;28;20040;-61
2022/02/23 12:21:39;;;;;;;9.98;1.70;;;12.80;89.90;;;;;;5041250;28;20028;-61
2022/02/23 12:24:05;;;;;;;4.05;1.10;;;12.70;88.40;;;;;;5034283;28;20025;-60
2022/02/23 12:26:36;;;;;;;0.80;0.63;;;12.60;88.00;;;;;;5035782;28;20072;-61
2022/02/23 12:31:32;;;;;;;1.13;0.38;;;12.70;90.00;;;;;;5058967;23;20106;-66
2022/02/23 12:34:07;;;;;;;1.17;1.00;;;12.80;89.40;;;;;;5034483;28;20041;-66
2022/02/23 12:36:40;;;;;;;3.30;0.47;;;12.90;89.00;;;;;;5029097;28;20037;-67
2022/02/23 12:39:10;;;;;;;1.65;1.17;;;12.90;88.30;;;;;;5029892;28;20029;-66
2022/02/23 12:41:36;;;;;;;;;;;12.90;89.60;;;;;;5030069;28;20129;-66
2022/02/23 12:44:09;;;;;;;2.85;0.80;;;13.00;90.10;;;;;;5030081;28;20039;-66
2022/02/23 12:46:42;;;;;;;3.33;0.80;;;13.10;88.00;;;;;;5045269;28;20112;-66
2022/02/23 12:49:08;;;;;;;0.30;0.30;;;13.20;87.70;;;;;;5049270;28;20029;-66
2022/02/23 12:51:36;;;;;;;1.88;0.77;;;13.20;84.90;;;;;;5049359;28;20025;-67
2022/02/23 12:54:05;;;;;;;3.15;0.98;;;13.20;87.50;;;;;;5050146;28;20067;-67
2022/02/23 12:56:44;;;;;;;5.70;1.08;;;13.30;87.40;;;;;;5050681;28;20025;-67
2022/02/23 12:59:19;;;;;;;2.75;1.17;;;13.30;85.80;;;;;;5050998;28;20060;-67
2022/02/23 13:01:48;;;;;;;4.47;0.90;;;13.40;88.70;;;;;;5047762;28;20033;-67
2022/02/23 13:04:15;;;;;;;6.13;1.40;;;13.30;88.40;;;;;;5046089;28;20020;-67